sensor_id;sensor_type;location;lat;lon;timestamp;P1;durP1;ratioP1;P2;durP2;ratioP2
14994;SDS011;7593;49.006;8.372;2023-12-20T00:00:29;6.60;;;5.33;;
14994;SDS011;7593;49.006;8.372;2023-12-20T00:02:56;5.87;;;5.23;;
14994;SDS011;7593;49.006;8.372;2023-12-20T00:05:23;5.73;;;5.00;;
14994;SDS011;7593;49.006;8.372;2023-12-20T00:07:50;6.90;;;5.60;;
14994;SDS011;7593;49.006;8.372;2023-12-20T00:10:16;6.87;;;5.63;;
14994;SDS011;7593;49.006;8.372;2023-12-20T00:12:43;7.97;;;6.90;;
14994;SDS011;7593;49.006;8.372;2023-12-20T00:15:10;11.80;;;8.93;;
14994;SDS011;7593;49.006;8.372;2023-12-20T00:17:38;8.17;;;7.17;;
14994;SDS011;7593;49.006;8.372;2023-12-20T00:20:05;11.37;;;9.50;;
14994;SDS011;7593;49.006;8.372;2023-12-20T00:22:33;7.67;;;6.13;;
14994;SDS011;7593;49.006;8.372;2023-12-20T00:24:59;7.47;;;6.07;;
14994;SDS011;7593;49.006;8.372;2023-12-20T00:27:26;7.97;;;6.73;;
14994;SDS011;7593;49.006;8.372;2023-12-20T00:29:53;7.90;;;5.90;;
14994;SDS011;7593;49.006;8.372;2023-12-20T00:32:19;6.70;;;6.00;;
14994;SDS011;7593;49.006;8.372;2023-12-20T00:34:47;6.50;;;5.67;;
14994;SDS011;7593;49.006;8.372;2023-12-20T00:37:14;7.43;;;6.10;;
14994;SDS011;7593;49.006;8.372;2023-12-20T00:39:41;9.30;;;7.37;;
14994;SDS011;7593;49.006;8.372;2023-12-20T00:42:08;7.10;;;6.03;;
14994;SDS011;7593;49.006;8.372;2023-12-20T00:44:35;10.57;;;8.13;;
14994;SDS011;7593;49.006;8.372;2023-12-20T00:47:02;9.00;;;7.23;;
14994;SDS011;7593;49.006;8.372;2023-12-20T00:49:29;9.87;;;7.33;;
14994;SDS011;7593;49.006;8.372;2023-12-20T00:51:57;10.63;;;8.13;;
14994;SDS011;7593;49.006;8.372;2023-12-20T00:54:24;6.30;;;5.63;;
14994;SDS011;7593;49.006;8.372;2023-12-20T00:56:51;14.03;;;9.20;;
14994;SDS011;7593;49.006;8.372;2023-12-20T00:59:17;7.27;;;6.13;;
14994;SDS011;7593;49.006;8.372;2023-12-20T01:01:45;7.77;;;6.30;;
14994;SDS011;7593;49.006;8.372;2023-12-20T01:04:11;10.63;;;7.73;;
14994;SDS011;7593;49.006;8.372;2023-12-20T01:06:38;9.03;;;6.83;;
14994;SDS011;7593;49.006;8.372;2023-12-20T01:09:06;25.20;;;15.03;;
14994;SDS011;7593;49.006;8.372;2023-12-20T01:11:33;8.90;;;7.10;;
14994;SDS011;7593;49.006;8.372;2023-12-20T01:13:59;15.77;;;10.73;;
14994;SDS011;7593;49.006;8.372;2023-12-20T01:16:26;20.37;;;13.80;;
14994;SDS011;7593;49.006;8.372;2023-12-20T01:18:53;7.77;;;6.37;;
14994;SDS011;7593;49.006;8.372;2023-12-20T01:21:20;11.20;;;7.20;;
14994;SDS011;7593;49.006;8.372;2023-12-20T01:23:46;8.60;;;7.47;;
14994;SDS011;7593;49.006;8.372;2023-12-20T01:26:15;7.27;;;6.57;;
14994;SDS011;7593;49.006;8.372;2023-12-20T01:28:42;7.50;;;6.30;;
14994;SDS011;7593;49.006;8.372;2023-12-20T01:31:09;9.03;;;7.33;;
14994;SDS011;7593;49.006;8.372;2023-12-20T01:33:36;7.63;;;6.93;;
14994;SDS011;7593;49.006;8.372;2023-12-20T01:36:05;8.70;;;7.33;;
14994;SDS011;7593;49.006;8.372;2023-12-20T01:38:37;8.00;;;6.70;;
14994;SDS011;7593;49.006;8.372;2023-12-20T01:41:04;8.80;;;6.60;;
14994;SDS011;7593;49.006;8.372;2023-12-20T01:43:32;8.30;;;6.30;;
14994;SDS011;7593;49.006;8.372;2023-12-20T01:45:59;7.37;;;6.60;;
14994;SDS011;7593;49.006;8.372;2023-12-20T01:48:26;8.13;;;6.77;;
14994;SDS011;7593;49.006;8.372;2023-12-20T01:50:54;7.90;;;6.40;;
14994;SDS011;7593;49.006;8.372;2023-12-20T01:53:21;7.30;;;6.50;;
14994;SDS011;7593;49.006;8.372;2023-12-20T01:55:52;7.90;;;6.63;;
14994;SDS011;7593;49.006;8.372;2023-12-20T01:58:20;8.23;;;6.37;;
14994;SDS011;7593;49.006;8.372;2023-12-20T02:00:49;8.40;;;6.50;;
14994;SDS011;7593;49.006;8.372;2023-12-20T02:03:17;7.13;;;6.33;;
14994;SDS011;7593;49.006;8.372;2023-12-20T02:05:44;8.00;;;6.43;;
14994;SDS011;7593;49.006;8.372;2023-12-20T02:08:13;8.83;;;6.80;;
14994;SDS011;7593;49.006;8.372;2023-12-20T02:10:39;6.73;;;6.03;;
14994;SDS011;7593;49.006;8.372;2023-12-20T02:13:07;8.17;;;6.27;;
14994;SDS011;7593;49.006;8.372;2023-12-20T02:15:33;7.37;;;6.57;;
14994;SDS011;7593;49.006;8.372;2023-12-20T02:18:03;6.57;;;5.97;;
14994;SDS011;7593;49.006;8.372;2023-12-20T02:20:30;7.20;;;6.50;;
14994;SDS011;7593;49.006;8.372;2023-12-20T02:22:58;6.93;;;6.17;;
14994;SDS011;7593;49.006;8.372;2023-12-20T02:25:25;7.00;;;6.10;;
14994;SDS011;7593;49.006;8.372;2023-12-20T02:27:52;7.33;;;6.60;;
14994;SDS011;7593;49.006;8.372;2023-12-20T02:30:19;7.43;;;6.70;;
14994;SDS011;7593;49.006;8.372;2023-12-20T02:32:45;6.80;;;6.10;;
14994;SDS011;7593;49.006;8.372;2023-12-20T02:35:12;8.03;;;6.80;;
14994;SDS011;7593;49.006;8.372;2023-12-20T02:37:39;7.43;;;6.40;;
14994;SDS011;7593;49.006;8.372;2023-12-20T02:40:08;9.03;;;6.37;;
14994;SDS011;7593;49.006;8.372;2023-12-20T02:42:35;7.27;;;6.57;;
14994;SDS011;7593;49.006;8.372;2023-12-20T02:45:02;6.60;;;5.93;;
14994;SDS011;7593;49.006;8.372;2023-12-20T02:47:29;7.17;;;6.03;;
14994;SDS011;7593;49.006;8.372;2023-12-20T02:49:56;7.63;;;6.20;;
14994;SDS011;7593;49.006;8.372;2023-12-20T02:52:23;6.37;;;5.77;;
14994;SDS011;7593;49.006;8.372;2023-12-20T02:54:50;7.00;;;6.27;;
14994;SDS011;7593;49.006;8.372;2023-12-20T02:57:18;7.60;;;6.20;;
14994;SDS011;7593;49.006;8.372;2023-12-20T02:59:44;8.93;;;6.23;;
14994;SDS011;7593;49.006;8.372;2023-12-20T03:02:11;8.30;;;6.57;;
14994;SDS011;7593;49.006;8.372;2023-12-20T03:04:38;7.63;;;6.30;;
14994;SDS011;7593;49.006;8.372;2023-12-20T03:07:04;7.43;;;6.70;;
14994;SDS011;7593;49.006;8.372;2023-12-20T03:09:31;7.93;;;6.47;;
14994;SDS011;7593;49.006;8.372;2023-12-20T03:11:58;7.53;;;6.73;;
14994;SDS011;7593;49.006;8.372;2023-12-20T03:14:26;7.63;;;6.17;;
14994;SDS011;7593;49.006;8.372;2023-12-20T03:16:53;9.23;;;6.60;;
14994;SDS011;7593;49.006;8.372;2023-12-20T03:19:19;9.43;;;6.37;;
14994;SDS011;7593;49.006;8.372;2023-12-20T03:21:46;7.27;;;6.40;;
14994;SDS011;7593;49.006;8.372;2023-12-20T03:24:13;6.27;;;5.60;;
14994;SDS011;7593;49.006;8.372;2023-12-20T03:26:39;8.10;;;6.77;;
14994;SDS011;7593;49.006;8.372;2023-12-20T03:29:06;8.43;;;6.07;;
14994;SDS011;7593;49.006;8.372;2023-12-20T03:31:34;7.13;;;6.27;;
14994;SDS011;7593;49.006;8.372;2023-12-20T03:34:01;7.67;;;5.77;;
14994;SDS011;7593;49.006;8.372;2023-12-20T03:36:28;6.87;;;6.17;;
14994;SDS011;7593;49.006;8.372;2023-12-20T03:38:54;5.87;;;5.20;;
14994;SDS011;7593;49.006;8.372;2023-12-20T03:41:21;6.40;;;5.63;;
14994;SDS011;7593;49.006;8.372;2023-12-20T03:43:48;7.33;;;5.80;;
14994;SDS011;7593;49.006;8.372;2023-12-20T03:46:14;6.30;;;5.70;;
14994;SDS011;7593;49.006;8.372;2023-12-20T03:48:42;6.60;;;5.70;;
14994;SDS011;7593;49.006;8.372;2023-12-20T03:51:09;6.50;;;5.83;;
14994;SDS011;7593;49.006;8.372;2023-12-20T03:53:36;6.97;;;5.80;;
14994;SDS011;7593;49.006;8.372;2023-12-20T03:56:03;5.90;;;5.30;;
14994;SDS011;7593;49.006;8.372;2023-12-20T03:58:30;7.07;;;4.97;;
14994;SDS011;7593;49.006;8.372;2023-12-20T04:00:57;6.03;;;5.43;;
14994;SDS011;7593;49.006;8.372;2023-12-20T04:03:24;6.27;;;5.47;;
14994;SDS011;7593;49.006;8.372;2023-12-20T04:05:52;6.43;;;5.40;;
14994;SDS011;7593;49.006;8.372;2023-12-20T04:08:18;6.03;;;5.00;;
14994;SDS011;7593;49.006;8.372;2023-12-20T04:10:46;6.00;;;5.40;;
14994;SDS011;7593;49.006;8.372;2023-12-20T04:13:13;5.73;;;4.90;;
14994;SDS011;7593;49.006;8.372;2023-12-20T04:15:39;5.73;;;4.77;;
14994;SDS011;7593;49.006;8.372;2023-12-20T04:18:06;5.63;;;5.03;;
14994;SDS011;7593;49.006;8.372;2023-12-20T04:20:33;6.90;;;5.30;;
14994;SDS011;7593;49.006;8.372;2023-12-20T04:23:01;6.33;;;4.80;;
14994;SDS011;7593;49.006;8.372;2023-12-20T04:25:28;5.57;;;5.07;;
14994;SDS011;7593;49.006;8.372;2023-12-20T04:27:54;6.13;;;5.00;;
14994;SDS011;7593;49.006;8.372;2023-12-20T04:30:21;5.10;;;4.60;;
14994;SDS011;7593;49.006;8.372;2023-12-20T04:32:48;5.83;;;4.77;;
14994;SDS011;7593;49.006;8.372;2023-12-20T04:35:15;5.80;;;5.10;;
14994;SDS011;7593;49.006;8.372;2023-12-20T04:37:41;5.30;;;4.80;;
14994;SDS011;7593;49.006;8.372;2023-12-20T04:40:10;5.43;;;4.93;;
14994;SDS011;7593;49.006;8.372;2023-12-20T04:42:36;5.97;;;5.30;;
14994;SDS011;7593;49.006;8.372;2023-12-20T04:45:03;6.87;;;5.20;;
14994;SDS011;7593;49.006;8.372;2023-12-20T04:47:31;5.17;;;4.67;;
14994;SDS011;7593;49.006;8.372;2023-12-20T04:49:57;7.03;;;5.30;;
14994;SDS011;7593;49.006;8.372;2023-12-20T04:52:24;6.10;;;5.50;;
14994;SDS011;7593;49.006;8.372;2023-12-20T04:54:51;5.50;;;5.00;;
14994;SDS011;7593;49.006;8.372;2023-12-20T04:57:20;6.97;;;5.57;;
14994;SDS011;7593;49.006;8.372;2023-12-20T04:59:46;7.00;;;5.70;;
14994;SDS011;7593;49.006;8.372;2023-12-20T05:02:13;8.57;;;5.47;;
14994;SDS011;7593;49.006;8.372;2023-12-20T05:04:40;5.93;;;5.20;;
14994;SDS011;7593;49.006;8.372;2023-12-20T05:07:07;5.90;;;5.13;;
14994;SDS011;7593;49.006;8.372;2023-12-20T05:09:34;4.97;;;4.47;;
14994;SDS011;7593;49.006;8.372;2023-12-20T05:12:01;5.60;;;4.63;;
14994;SDS011;7593;49.006;8.372;2023-12-20T05:14:29;5.50;;;4.93;;
14994;SDS011;7593;49.006;8.372;2023-12-20T05:16:55;6.20;;;5.40;;
14994;SDS011;7593;49.006;8.372;2023-12-20T05:19:22;6.17;;;5.23;;
14994;SDS011;7593;49.006;8.372;2023-12-20T05:21:49;5.77;;;5.17;;
14994;SDS011;7593;49.006;8.372;2023-12-20T05:24:16;6.20;;;5.10;;
14994;SDS011;7593;49.006;8.372;2023-12-20T05:26:42;5.67;;;5.00;;
14994;SDS011;7593;49.006;8.372;2023-12-20T05:29:09;5.83;;;5.23;;
14994;SDS011;7593;49.006;8.372;2023-12-20T05:31:37;5.90;;;5.30;;
14994;SDS011;7593;49.006;8.372;2023-12-20T05:34:04;5.47;;;4.97;;
14994;SDS011;7593;49.006;8.372;2023-12-20T05:36:31;5.50;;;5.00;;
14994;SDS011;7593;49.006;8.372;2023-12-20T05:38:58;6.10;;;5.10;;
14994;SDS011;7593;49.006;8.372;2023-12-20T05:41:25;5.67;;;5.07;;
14994;SDS011;7593;49.006;8.372;2023-12-20T05:43:52;5.57;;;5.07;;
14994;SDS011;7593;49.006;8.372;2023-12-20T05:46:19;6.27;;;5.43;;
14994;SDS011;7593;49.006;8.372;2023-12-20T05:48:47;5.73;;;5.07;;
14994;SDS011;7593;49.006;8.372;2023-12-20T05:51:14;5.27;;;4.77;;
14994;SDS011;7593;49.006;8.372;2023-12-20T05:53:41;5.80;;;5.03;;
14994;SDS011;7593;49.006;8.372;2023-12-20T05:56:07;5.57;;;4.70;;
14994;SDS011;7593;49.006;8.372;2023-12-20T05:58:34;6.70;;;5.30;;
14994;SDS011;7593;49.006;8.372;2023-12-20T06:01:02;6.37;;;5.43;;
14994;SDS011;7593;49.006;8.372;2023-12-20T06:03:30;6.07;;;5.40;;
14994;SDS011;7593;49.006;8.372;2023-12-20T06:05:58;5.80;;;5.20;;
14994;SDS011;7593;49.006;8.372;2023-12-20T06:08:28;5.60;;;5.07;;
14994;SDS011;7593;49.006;8.372;2023-12-20T06:10:55;5.60;;;5.03;;
14994;SDS011;7593;49.006;8.372;2023-12-20T06:13:22;5.60;;;5.10;;
14994;SDS011;7593;49.006;8.372;2023-12-20T06:15:48;5.23;;;4.73;;
14994;SDS011;7593;49.006;8.372;2023-12-20T06:18:15;6.03;;;4.90;;
14994;SDS011;7593;49.006;8.372;2023-12-20T06:20:42;5.87;;;4.53;;
14994;SDS011;7593;49.006;8.372;2023-12-20T06:23:10;5.70;;;5.00;;
14994;SDS011;7593;49.006;8.372;2023-12-20T06:25:37;5.50;;;5.00;;
14994;SDS011;7593;49.006;8.372;2023-12-20T06:28:04;5.80;;;4.53;;
14994;SDS011;7593;49.006;8.372;2023-12-20T06:30:31;5.20;;;4.73;;
14994;SDS011;7593;49.006;8.372;2023-12-20T06:32:59;5.00;;;4.50;;
14994;SDS011;7593;49.006;8.372;2023-12-20T06:35:25;5.37;;;4.30;;
14994;SDS011;7593;49.006;8.372;2023-12-20T06:37:52;4.47;;;3.93;;
14994;SDS011;7593;49.006;8.372;2023-12-20T06:40:20;4.68;;;4.28;;
14994;SDS011;7593;49.006;8.372;2023-12-20T06:42:47;4.47;;;4.07;;
14994;SDS011;7593;49.006;8.372;2023-12-20T06:45:14;4.50;;;4.10;;
14994;SDS011;7593;49.006;8.372;2023-12-20T06:47:41;4.73;;;4.20;;
14994;SDS011;7593;49.006;8.372;2023-12-20T06:50:08;5.60;;;5.10;;
14994;SDS011;7593;49.006;8.372;2023-12-20T06:52:34;5.10;;;4.60;;
14994;SDS011;7593;49.006;8.372;2023-12-20T06:55:01;4.40;;;4.00;;
14994;SDS011;7593;49.006;8.372;2023-12-20T06:57:30;6.23;;;5.50;;
14994;SDS011;7593;49.006;8.372;2023-12-20T06:59:57;7.37;;;5.83;;
14994;SDS011;7593;49.006;8.372;2023-12-20T07:02:23;5.23;;;4.73;;
14994;SDS011;7593;49.006;8.372;2023-12-20T07:04:50;10.30;;;8.03;;
14994;SDS011;7593;49.006;8.372;2023-12-20T07:07:17;7.40;;;5.90;;
14994;SDS011;7593;49.006;8.372;2023-12-20T07:09:44;7.57;;;6.17;;
14994;SDS011;7593;49.006;8.372;2023-12-20T07:12:10;6.87;;;6.13;;
14994;SDS011;7593;49.006;8.372;2023-12-20T07:14:38;6.13;;;5.53;;
14994;SDS011;7593;49.006;8.372;2023-12-20T07:17:05;7.67;;;6.50;;
14994;SDS011;7593;49.006;8.372;2023-12-20T07:19:36;12.03;;;10.83;;
14994;SDS011;7593;49.006;8.372;2023-12-20T07:22:03;10.23;;;9.23;;
14994;SDS011;7593;49.006;8.372;2023-12-20T07:24:30;5.70;;;5.17;;
14994;SDS011;7593;49.006;8.372;2023-12-20T07:26:57;8.40;;;7.57;;
14994;SDS011;7593;49.006;8.372;2023-12-20T07:29:23;5.10;;;4.60;;
14994;SDS011;7593;49.006;8.372;2023-12-20T07:31:52;6.57;;;4.27;;
14994;SDS011;7593;49.006;8.372;2023-12-20T07:34:19;5.27;;;4.73;;
14994;SDS011;7593;49.006;8.372;2023-12-20T07:36:46;5.10;;;4.60;;
14994;SDS011;7593;49.006;8.372;2023-12-20T07:39:13;5.40;;;4.90;;
14994;SDS011;7593;49.006;8.372;2023-12-20T07:41:40;5.87;;;5.20;;
14994;SDS011;7593;49.006;8.372;2023-12-20T07:44:07;5.23;;;4.73;;
14994;SDS011;7593;49.006;8.372;2023-12-20T07:46:34;5.47;;;4.63;;
14994;SDS011;7593;49.006;8.372;2023-12-20T07:49:02;5.53;;;5.03;;
14994;SDS011;7593;49.006;8.372;2023-12-20T07:51:30;5.60;;;4.80;;
14994;SDS011;7593;49.006;8.372;2023-12-20T07:53:56;6.17;;;4.90;;
14994;SDS011;7593;49.006;8.372;2023-12-20T07:56:23;5.03;;;4.53;;
14994;SDS011;7593;49.006;8.372;2023-12-20T07:58:50;6.57;;;5.13;;
14994;SDS011;7593;49.006;8.372;2023-12-20T08:01:16;7.73;;;5.43;;
14994;SDS011;7593;49.006;8.372;2023-12-20T08:03:44;5.60;;;4.97;;
14994;SDS011;7593;49.006;8.372;2023-12-20T08:06:12;5.23;;;4.70;;
14994;SDS011;7593;49.006;8.372;2023-12-20T08:08:39;5.80;;;4.60;;
14994;SDS011;7593;49.006;8.372;2023-12-20T08:11:06;5.00;;;4.40;;
14994;SDS011;7593;49.006;8.372;2023-12-20T08:13:32;5.07;;;4.57;;
14994;SDS011;7593;49.006;8.372;2023-12-20T08:15:59;5.33;;;4.80;;
14994;SDS011;7593;49.006;8.372;2023-12-20T08:18:28;6.07;;;5.03;;
14994;SDS011;7593;49.006;8.372;2023-12-20T08:20:54;5.03;;;4.53;;
14994;SDS011;7593;49.006;8.372;2023-12-20T08:23:22;6.50;;;4.70;;
14994;SDS011;7593;49.006;8.372;2023-12-20T08:25:49;5.07;;;4.50;;
14994;SDS011;7593;49.006;8.372;2023-12-20T08:28:16;4.43;;;4.03;;
14994;SDS011;7593;49.006;8.372;2023-12-20T08:30:43;6.33;;;4.40;;
14994;SDS011;7593;49.006;8.372;2023-12-20T08:33:09;5.60;;;4.53;;
14994;SDS011;7593;49.006;8.372;2023-12-20T08:35:37;5.37;;;3.93;;
14994;SDS011;7593;49.006;8.372;2023-12-20T08:38:04;6.17;;;3.80;;
14994;SDS011;7593;49.006;8.372;2023-12-20T08:40:33;7.07;;;4.00;;
14994;SDS011;7593;49.006;8.372;2023-12-20T08:43:00;4.13;;;3.63;;
14994;SDS011;7593;49.006;8.372;2023-12-20T08:45:26;5.73;;;4.20;;
14994;SDS011;7593;49.006;8.372;2023-12-20T08:47:53;5.13;;;3.60;;
14994;SDS011;7593;49.006;8.372;2023-12-20T08:50:20;6.30;;;4.60;;
14994;SDS011;7593;49.006;8.372;2023-12-20T08:52:46;6.30;;;2.90;;
14994;SDS011;7593;49.006;8.372;2023-12-20T08:55:13;4.43;;;3.30;;
14994;SDS011;7593;49.006;8.372;2023-12-20T08:57:44;6.63;;;3.30;;
14994;SDS011;7593;49.006;8.372;2023-12-20T09:00:11;5.37;;;3.60;;
14994;SDS011;7593;49.006;8.372;2023-12-20T09:02:39;3.63;;;2.93;;
14994;SDS011;7593;49.006;8.372;2023-12-20T09:05:07;4.70;;;3.50;;
14994;SDS011;7593;49.006;8.372;2023-12-20T09:07:34;4.03;;;3.00;;
14994;SDS011;7593;49.006;8.372;2023-12-20T09:10:01;4.00;;;2.93;;
14994;SDS011;7593;49.006;8.372;2023-12-20T09:12:27;4.50;;;3.73;;
14994;SDS011;7593;49.006;8.372;2023-12-20T09:14:55;4.40;;;3.20;;
14994;SDS011;7593;49.006;8.372;2023-12-20T09:17:22;4.40;;;3.50;;
14994;SDS011;7593;49.006;8.372;2023-12-20T09:19:49;6.93;;;4.47;;
14994;SDS011;7593;49.006;8.372;2023-12-20T09:22:17;4.73;;;3.23;;
14994;SDS011;7593;49.006;8.372;2023-12-20T09:24:44;5.10;;;3.23;;
14994;SDS011;7593;49.006;8.372;2023-12-20T09:27:11;3.77;;;2.63;;
14994;SDS011;7593;49.006;8.372;2023-12-20T09:29:38;4.63;;;2.40;;
14994;SDS011;7593;49.006;8.372;2023-12-20T09:32:06;5.27;;;3.60;;
14994;SDS011;7593;49.006;8.372;2023-12-20T09:34:33;5.03;;;2.97;;
14994;SDS011;7593;49.006;8.372;2023-12-20T09:36:59;6.50;;;2.93;;
14994;SDS011;7593;49.006;8.372;2023-12-20T09:39:28;4.87;;;3.47;;
14994;SDS011;7593;49.006;8.372;2023-12-20T09:41:58;7.37;;;4.80;;
14994;SDS011;7593;49.006;8.372;2023-12-20T09:44:28;10.97;;;5.83;;
14994;SDS011;7593;49.006;8.372;2023-12-20T09:46:56;6.93;;;2.90;;
14994;SDS011;7593;49.006;8.372;2023-12-20T09:49:25;8.10;;;2.57;;
14994;SDS011;7593;49.006;8.372;2023-12-20T09:51:53;6.43;;;2.50;;
14994;SDS011;7593;49.006;8.372;2023-12-20T09:54:21;6.57;;;2.53;;
14994;SDS011;7593;49.006;8.372;2023-12-20T09:56:48;3.80;;;1.98;;
14994;SDS011;7593;49.006;8.372;2023-12-20T09:59:15;5.50;;;2.20;;
14994;SDS011;7593;49.006;8.372;2023-12-20T10:01:42;5.57;;;2.25;;
14994;SDS011;7593;49.006;8.372;2023-12-20T10:04:09;5.40;;;2.70;;
14994;SDS011;7593;49.006;8.372;2023-12-20T10:06:40;4.50;;;2.47;;
14994;SDS011;7593;49.006;8.372;2023-12-20T10:09:07;4.53;;;2.20;;
14994;SDS011;7593;49.006;8.372;2023-12-20T10:11:35;5.25;;;2.50;;
14994;SDS011;7593;49.006;8.372;2023-12-20T10:14:02;4.80;;;2.40;;
14994;SDS011;7593;49.006;8.372;2023-12-20T10:16:30;5.70;;;3.00;;
14994;SDS011;7593;49.006;8.372;2023-12-20T10:18:57;5.33;;;2.40;;
14994;SDS011;7593;49.006;8.372;2023-12-20T10:21:25;7.25;;;2.90;;
14994;SDS011;7593;49.006;8.372;2023-12-20T10:23:54;4.55;;;2.30;;
14994;SDS011;7593;49.006;8.372;2023-12-20T10:26:21;6.70;;;2.13;;
14994;SDS011;7593;49.006;8.372;2023-12-20T10:28:50;5.50;;;2.83;;
14994;SDS011;7593;49.006;8.372;2023-12-20T10:31:27;5.22;;;3.10;;
14994;SDS011;7593;49.006;8.372;2023-12-20T10:33:56;6.93;;;2.45;;
14994;SDS011;7593;49.006;8.372;2023-12-20T10:36:24;5.50;;;2.83;;
14994;SDS011;7593;49.006;8.372;2023-12-20T10:38:53;3.28;;;2.28;;
14994;SDS011;7593;49.006;8.372;2023-12-20T10:41:24;4.37;;;2.20;;
14994;SDS011;7593;49.006;8.372;2023-12-20T10:43:53;5.78;;;4.90;;
14994;SDS011;7593;49.006;8.372;2023-12-20T10:46:25;5.37;;;2.50;;
14994;SDS011;7593;49.006;8.372;2023-12-20T10:48:53;5.73;;;2.80;;
14994;SDS011;7593;49.006;8.372;2023-12-20T10:51:20;6.85;;;2.80;;
14994;SDS011;7593;49.006;8.372;2023-12-20T10:53:49;5.57;;;2.70;;
14994;SDS011;7593;49.006;8.372;2023-12-20T10:56:17;4.68;;;2.38;;
14994;SDS011;7593;49.006;8.372;2023-12-20T10:58:45;6.30;;;3.03;;
14994;SDS011;7593;49.006;8.372;2023-12-20T11:01:13;4.45;;;2.47;;
14994;SDS011;7593;49.006;8.372;2023-12-20T11:03:42;5.03;;;2.40;;
14994;SDS011;7593;49.006;8.372;2023-12-20T11:06:13;5.28;;;2.58;;
14994;SDS011;7593;49.006;8.372;2023-12-20T11:08:56;7.38;;;3.00;;
14994;SDS011;7593;49.006;8.372;2023-12-20T11:11:37;7.00;;;2.33;;
14994;SDS011;7593;49.006;8.372;2023-12-20T11:14:14;5.95;;;2.38;;
14994;SDS011;7593;49.006;8.372;2023-12-20T11:16:45;6.13;;;2.60;;
14994;SDS011;7593;49.006;8.372;2023-12-20T11:19:12;6.55;;;3.17;;
14994;SDS011;7593;49.006;8.372;2023-12-20T11:21:39;6.45;;;2.67;;
14994;SDS011;7593;49.006;8.372;2023-12-20T11:24:06;7.00;;;2.75;;
14994;SDS011;7593;49.006;8.372;2023-12-20T11:26:33;4.53;;;2.50;;
14994;SDS011;7593;49.006;8.372;2023-12-20T11:31:55;8.15;;;3.28;;
14994;SDS011;7593;49.006;8.372;2023-12-20T11:34:22;8.02;;;3.80;;
14994;SDS011;7593;49.006;8.372;2023-12-20T11:36:56;5.10;;;2.83;;
14994;SDS011;7593;49.006;8.372;2023-12-20T11:39:23;7.90;;;2.85;;
14994;SDS011;7593;49.006;8.372;2023-12-20T11:41:55;6.47;;;2.88;;
14994;SDS011;7593;49.006;8.372;2023-12-20T11:44:23;9.85;;;2.67;;
14994;SDS011;7593;49.006;8.372;2023-12-20T11:46:51;4.90;;;2.55;;
14994;SDS011;7593;49.006;8.372;2023-12-20T11:49:22;8.50;;;3.13;;
14994;SDS011;7593;49.006;8.372;2023-12-20T11:51:50;8.98;;;3.22;;
14994;SDS011;7593;49.006;8.372;2023-12-20T11:54:17;4.77;;;2.87;;
14994;SDS011;7593;49.006;8.372;2023-12-20T11:56:44;10.43;;;3.00;;
14994;SDS011;7593;49.006;8.372;2023-12-20T11:59:12;8.77;;;3.70;;
14994;SDS011;7593;49.006;8.372;2023-12-20T12:01:40;6.37;;;2.90;;
14994;SDS011;7593;49.006;8.372;2023-12-20T12:04:13;8.83;;;2.63;;
14994;SDS011;7593;49.006;8.372;2023-12-20T12:06:40;10.87;;;3.00;;
14994;SDS011;7593;49.006;8.372;2023-12-20T12:09:07;7.83;;;2.83;;
14994;SDS011;7593;49.006;8.372;2023-12-20T12:11:35;6.40;;;2.70;;
14994;SDS011;7593;49.006;8.372;2023-12-20T12:14:01;6.87;;;2.90;;
14994;SDS011;7593;49.006;8.372;2023-12-20T12:16:29;7.97;;;3.40;;
14994;SDS011;7593;49.006;8.372;2023-12-20T12:18:56;7.90;;;3.00;;
14994;SDS011;7593;49.006;8.372;2023-12-20T12:21:23;7.73;;;3.07;;
14994;SDS011;7593;49.006;8.372;2023-12-20T12:23:50;9.43;;;4.10;;
14994;SDS011;7593;49.006;8.372;2023-12-20T12:26:18;14.17;;;5.90;;
14994;SDS011;7593;49.006;8.372;2023-12-20T12:28:45;9.53;;;3.50;;
14994;SDS011;7593;49.006;8.372;2023-12-20T12:31:13;9.00;;;3.13;;
14994;SDS011;7593;49.006;8.372;2023-12-20T12:33:42;7.77;;;3.03;;
14994;SDS011;7593;49.006;8.372;2023-12-20T12:36:09;12.98;;;3.65;;
14994;SDS011;7593;49.006;8.372;2023-12-20T12:38:37;10.02;;;2.60;;
14994;SDS011;7593;49.006;8.372;2023-12-20T12:41:04;9.47;;;2.97;;
14994;SDS011;7593;49.006;8.372;2023-12-20T12:43:31;7.33;;;2.70;;
14994;SDS011;7593;49.006;8.372;2023-12-20T12:45:58;6.60;;;3.17;;
14994;SDS011;7593;49.006;8.372;2023-12-20T12:48:25;7.33;;;3.43;;
14994;SDS011;7593;49.006;8.372;2023-12-20T12:50:56;6.38;;;2.53;;
14994;SDS011;7593;49.006;8.372;2023-12-20T12:53:24;9.23;;;3.80;;
14994;SDS011;7593;49.006;8.372;2023-12-20T12:55:52;7.70;;;4.65;;
14994;SDS011;7593;49.006;8.372;2023-12-20T12:58:19;11.85;;;6.68;;
14994;SDS011;7593;49.006;8.372;2023-12-20T13:00:46;6.00;;;2.50;;
14994;SDS011;7593;49.006;8.372;2023-12-20T13:03:12;5.78;;;2.53;;
14994;SDS011;7593;49.006;8.372;2023-12-20T13:05:39;6.00;;;2.50;;
14994;SDS011;7593;49.006;8.372;2023-12-20T13:08:08;5.30;;;2.17;;
14994;SDS011;7593;49.006;8.372;2023-12-20T13:10:37;6.55;;;2.53;;
14994;SDS011;7593;49.006;8.372;2023-12-20T13:13:03;7.50;;;2.50;;
14994;SDS011;7593;49.006;8.372;2023-12-20T13:15:30;7.55;;;2.83;;
14994;SDS011;7593;49.006;8.372;2023-12-20T13:17:57;9.43;;;2.75;;
14994;SDS011;7593;49.006;8.372;2023-12-20T13:20:26;6.72;;;2.90;;
14994;SDS011;7593;49.006;8.372;2023-12-20T13:22:53;9.52;;;2.80;;
14994;SDS011;7593;49.006;8.372;2023-12-20T13:25:21;6.72;;;2.38;;
14994;SDS011;7593;49.006;8.372;2023-12-20T13:27:48;6.78;;;3.00;;
14994;SDS011;7593;49.006;8.372;2023-12-20T13:30:15;8.90;;;3.40;;
14994;SDS011;7593;49.006;8.372;2023-12-20T13:32:42;4.50;;;3.15;;
14994;SDS011;7593;49.006;8.372;2023-12-20T13:35:09;7.60;;;4.72;;
14994;SDS011;7593;49.006;8.372;2023-12-20T13:37:36;8.30;;;2.95;;
14994;SDS011;7593;49.006;8.372;2023-12-20T13:40:03;7.55;;;2.30;;
14994;SDS011;7593;49.006;8.372;2023-12-20T13:42:32;7.50;;;2.35;;
14994;SDS011;7593;49.006;8.372;2023-12-20T13:44:59;7.95;;;2.70;;
14994;SDS011;7593;49.006;8.372;2023-12-20T13:47:26;7.20;;;2.60;;
14994;SDS011;7593;49.006;8.372;2023-12-20T13:49:53;6.20;;;3.20;;
14994;SDS011;7593;49.006;8.372;2023-12-20T13:52:21;10.07;;;3.78;;
14994;SDS011;7593;49.006;8.372;2023-12-20T13:54:47;7.63;;;3.33;;
14994;SDS011;7593;49.006;8.372;2023-12-20T13:57:14;8.57;;;2.60;;
14994;SDS011;7593;49.006;8.372;2023-12-20T13:59:42;5.20;;;2.67;;
14994;SDS011;7593;49.006;8.372;2023-12-20T14:02:10;11.70;;;5.57;;
14994;SDS011;7593;49.006;8.372;2023-12-20T14:04:36;12.63;;;5.70;;
14994;SDS011;7593;49.006;8.372;2023-12-20T14:07:05;9.18;;;3.38;;
14994;SDS011;7593;49.006;8.372;2023-12-20T14:09:33;11.93;;;5.13;;
14994;SDS011;7593;49.006;8.372;2023-12-20T14:12:00;19.57;;;8.00;;
14994;SDS011;7593;49.006;8.372;2023-12-20T14:14:26;10.55;;;4.40;;
14994;SDS011;7593;49.006;8.372;2023-12-20T14:16:54;13.27;;;4.63;;
14994;SDS011;7593;49.006;8.372;2023-12-20T14:19:21;12.68;;;4.78;;
14994;SDS011;7593;49.006;8.372;2023-12-20T14:21:48;10.35;;;3.40;;
14994;SDS011;7593;49.006;8.372;2023-12-20T14:24:15;15.20;;;6.13;;
14994;SDS011;7593;49.006;8.372;2023-12-20T14:26:41;11.83;;;3.97;;
14994;SDS011;7593;49.006;8.372;2023-12-20T14:29:08;6.10;;;2.75;;
14994;SDS011;7593;49.006;8.372;2023-12-20T14:31:35;6.10;;;2.70;;
14994;SDS011;7593;49.006;8.372;2023-12-20T14:34:04;11.40;;;4.50;;
14994;SDS011;7593;49.006;8.372;2023-12-20T14:36:31;12.70;;;4.20;;
14994;SDS011;7593;49.006;8.372;2023-12-20T14:38:58;12.70;;;5.57;;
14994;SDS011;7593;49.006;8.372;2023-12-20T14:41:26;8.00;;;3.10;;
14994;SDS011;7593;49.006;8.372;2023-12-20T14:43:53;10.23;;;3.05;;
14994;SDS011;7593;49.006;8.372;2023-12-20T14:46:20;7.13;;;2.63;;
14994;SDS011;7593;49.006;8.372;2023-12-20T14:48:47;7.33;;;2.50;;
14994;SDS011;7593;49.006;8.372;2023-12-20T14:51:16;7.67;;;2.70;;
14994;SDS011;7593;49.006;8.372;2023-12-20T14:53:42;6.90;;;2.77;;
14994;SDS011;7593;49.006;8.372;2023-12-20T14:56:12;10.10;;;2.53;;
14994;SDS011;7593;49.006;8.372;2023-12-20T14:58:39;10.63;;;2.50;;
14994;SDS011;7593;49.006;8.372;2023-12-20T15:01:06;7.18;;;2.40;;
14994;SDS011;7593;49.006;8.372;2023-12-20T15:03:33;5.03;;;2.30;;